Time;durP1;ratioP1;P1;durP2;ratioP2;P2;SDS_P1;SDS_P2;PMS_P1;PMS_P2;Temp;Humidity;BMP_temperature;BMP_pressure;BME280_temperature;BME280_humidity;BME280_pressure;Samples;Min_cycle;Max_cycle;Signal;HPM_P1;HPM_P2
2021/03/24 00:00:27;;;;;;;1.57;1.47;;;20.00;20.00;;;;;;5035237;28;20184;-51
2021/03/24 00:02:56;;;;;;;1.65;1.55;;;20.00;20.00;;;;;;5035954;28;20951;-51
2021/03/24 00:05:28;;;;;;;1.50;1.40;;;20.00;20.00;;;;;;5035868;28;20160;-51
2021/03/24 00:07:54;;;;;;;1.48;1.38;;;20.00;20.00;;;;;;5035921;28;20618;-50
2021/03/24 00:10:23;;;;;;;1.50;1.40;;;20.00;20.00;;;;;;5035799;28;20172;-51
2021/03/24 00:12:50;;;;;;;1.80;1.70;;;20.00;20.10;;;;;;5036043;28;20188;-52
2021/03/24 00:15:16;;;;;;;1.40;1.30;;;20.00;20.10;;;;;;5035432;28;20184;-51
2021/03/24 00:17:42;;;;;;;1.50;1.40;;;19.90;20.00;;;;;;5035818;28;20156;-50
2021/03/24 00:20:11;;;;;;;1.97;1.87;;;19.90;20.00;;;;;;5035000;28;20160;-51
2021/03/24 00:22:42;;;;;;;1.70;1.60;;;20.00;20.30;;;;;;5035711;28;20179;-50
2021/03/24 00:25:08;;;;;;;1.85;1.65;;;19.90;20.00;;;;;;5035700;28;20159;-51
2021/03/24 00:27:35;;;;;;;1.73;1.63;;;19.90;20.00;;;;;;5035543;28;20215;-51
2021/03/24 00:30:05;;;;;;;1.40;1.30;;;19.90;20.00;;;;;;5035089;28;20164;-51
2021/03/24 00:32:31;;;;;;;2.08;1.90;;;19.90;20.00;;;;;;5035792;28;20187;-50
2021/03/24 00:34:56;;;;;;;1.73;1.63;;;19.90;20.00;;;;;;5067565;28;20566;-51
2021/03/24 00:37:24;;;;;;;1.50;1.40;;;19.90;20.00;;;;;;5035581;28;20160;-50
2021/03/24 00:39:50;;;;;;;1.65;1.40;;;19.90;20.10;;;;;;5035388;28;20160;-51
2021/03/24 00:42:15;;;;;;;1.70;1.60;;;19.90;20.00;;;;;;5035421;28;20202;-51
2021/03/24 00:44:41;;;;;;;1.80;1.70;;;19.90;20.10;;;;;;5034949;28;20630;-51
2021/03/24 00:47:09;;;;;;;1.87;1.70;;;19.90;20.10;;;;;;5035453;28;20168;-51
2021/03/24 00:49:35;;;;;;;1.63;1.52;;;19.90;20.10;;;;;;5035230;28;20172;-52
2021/03/24 00:52:03;;;;;;;1.77;1.33;;;19.90;20.10;;;;;;5035211;28;20191;-50
2021/03/24 00:54:28;;;;;;;1.63;1.52;;;19.90;20.10;;;;;;5035141;28;20164;-51
2021/03/24 00:56:56;;;;;;;1.80;1.70;;;19.90;20.10;;;;;;5067324;28;20170;-51
2021/03/24 00:59:22;;;;;;;1.90;1.80;;;19.90;20.10;;;;;;5034140;28;20183;-50
2021/03/24 01:01:51;;;;;;;1.70;1.60;;;19.90;20.10;;;;;;5032510;28;20551;-52
2021/03/24 01:04:17;;;;;;;1.50;1.40;;;19.90;20.20;;;;;;5034541;28;20267;-51
2021/03/24 01:06:43;;;;;;;1.77;1.67;;;19.90;20.20;;;;;;5035052;28;20255;-50
2021/03/24 01:09:11;;;;;;;2.07;1.90;;;19.90;20.20;;;;;;5034826;28;20176;-51
2021/03/24 01:11:40;;;;;;;1.60;1.50;;;19.90;20.20;;;;;;5034824;28;20547;-51
2021/03/24 01:14:08;;;;;;;2.45;2.25;;;19.90;20.20;;;;;;5034272;28;20187;-51
2021/03/24 01:16:34;;;;;;;1.40;1.30;;;19.90;20.10;;;;;;5034977;28;20156;-51
2021/03/24 01:19:00;;;;;;;1.42;1.33;;;19.90;20.20;;;;;;5034646;28;20567;-50
2021/03/24 01:21:26;;;;;;;1.70;1.60;;;19.90;20.20;;;;;;5034695;28;20159;-50
2021/03/24 01:23:51;;;;;;;1.70;1.60;;;19.90;20.20;;;;;;5034545;28;20398;-50
2021/03/24 01:26:19;;;;;;;1.47;1.30;;;19.90;20.20;;;;;;5034569;28;20178;-50
2021/03/24 01:28:45;;;;;;;1.67;1.55;;;19.90;20.20;;;;;;5034318;28;20689;-50
2021/03/24 01:31:11;;;;;;;1.83;1.73;;;19.90;20.20;;;;;;5032895;28;20202;-51
2021/03/24 01:33:39;;;;;;;1.60;1.50;;;19.80;20.10;;;;;;5034348;28;20406;-51
2021/03/24 01:36:05;;;;;;;1.38;1.27;;;19.90;20.20;;;;;;5034157;28;20160;-51
2021/03/24 01:38:33;;;;;;;1.35;1.25;;;19.90;20.20;;;;;;5034376;28;20174;-51
2021/03/24 01:41:00;;;;;;;1.90;1.80;;;19.80;20.10;;;;;;5034071;28;20172;-51
2021/03/24 01:43:30;;;;;;;1.95;1.85;;;19.80;20.70;;;;;;5034261;28;20175;-51
2021/03/24 01:46:22;;;;;;;1.67;1.58;;;19.80;20.10;;;;;;5033789;28;20164;-51
2021/03/24 01:48:57;;;;;;;3.75;1.55;;;19.80;20.10;;;;;;5007203;28;20638;-51
2021/03/24 01:51:29;;;;;;;1.95;1.85;;;19.80;20.10;;;;;;5048372;28;20198;-50
2021/03/24 01:53:56;;;;;;;1.38;1.27;;;19.80;20.10;;;;;;5016276;28;20625;-51
2021/03/24 01:56:23;;;;;;;1.88;1.77;;;19.80;20.10;;;;;;5034130;28;20239;-51
2021/03/24 01:58:49;;;;;;;1.92;1.75;;;19.80;20.10;;;;;;5033908;28;20164;-51
2021/03/24 02:01:17;;;;;;;1.60;1.50;;;19.80;20.10;;;;;;5033537;28;20182;-51
2021/03/24 02:03:44;;;;;;;1.40;1.30;;;19.80;20.60;;;;;;5033857;28;20377;-51
2021/03/24 02:06:22;;;;;;;1.65;1.55;;;19.80;20.10;;;;;;5034154;28;20187;-51
2021/03/24 02:09:13;;;;;;;1.80;1.70;;;19.80;20.10;;;;;;5033946;28;20206;-51
2021/03/24 02:12:05;;;;;;;1.58;1.48;;;19.80;20.10;;;;;;5022834;28;20207;-51
2021/03/24 02:14:43;;;;;;;1.90;1.70;;;19.80;20.10;;;;;;5033324;28;20492;-50
2021/03/24 02:17:09;;;;;;;1.88;1.75;;;19.80;20.10;;;;;;5033776;28;20155;-51
2021/03/24 02:19:46;;;;;;;1.48;1.38;;;19.70;20.00;;;;;;5033713;28;20162;-51
2021/03/24 02:22:17;;;;;;;1.40;1.30;;;19.80;20.10;;;;;;5033771;28;20167;-51
2021/03/24 02:25:06;;;;;;;1.90;1.80;;;19.80;20.10;;;;;;5033743;28;20615;-51
2021/03/24 02:27:47;;;;;;;1.77;1.67;;;19.80;20.60;;;;;;5033679;28;20255;-51
2021/03/24 02:30:23;;;;;;;1.45;1.35;;;19.70;20.00;;;;;;5033038;28;20572;-51
2021/03/24 02:32:55;;;;;;;1.60;1.50;;;19.70;20.00;;;;;;5033092;28;20207;-50
2021/03/24 02:35:30;;;;;;;1.92;1.83;;;19.70;20.00;;;;;;5033223;28;20195;-50
2021/03/24 02:37:59;;;;;;;2.20;1.83;;;19.70;20.00;;;;;;5033806;28;20608;-51
2021/03/24 02:40:28;;;;;;;1.48;1.38;;;19.70;20.00;;;;;;5033516;28;20534;-51
2021/03/24 02:42:55;;;;;;;1.90;1.80;;;19.70;20.00;;;;;;5036341;28;20206;-51
2021/03/24 02:45:27;;;;;;;1.50;1.40;;;19.70;20.00;;;;;;5052372;28;20243;-51
2021/03/24 02:47:58;;;;;;;1.92;1.58;;;19.70;20.00;;;;;;5037569;28;20152;-51
2021/03/24 02:50:24;;;;;;;1.67;1.58;;;19.70;20.00;;;;;;5037436;28;20642;-50
2021/03/24 02:52:51;;;;;;;1.35;1.25;;;19.70;20.00;;;;;;5037544;28;20191;-51
2021/03/24 02:55:19;;;;;;;1.60;1.50;;;19.70;20.00;;;;;;5052784;28;20679;-51
2021/03/24 02:57:45;;;;;;;1.55;1.45;;;19.70;20.00;;;;;;5037525;28;20149;-51
2021/03/24 03:00:15;;;;;;;1.80;1.70;;;19.70;20.00;;;;;;5036318;28;20159;-51
2021/03/24 03:02:51;;;;;;;1.70;1.60;;;19.70;20.00;;;;;;5037229;28;20401;-51
2021/03/24 03:05:22;;;;;;;1.70;1.60;;;19.70;20.00;;;;;;5035941;28;20171;-51
2021/03/24 03:07:54;;;;;;;1.83;1.73;;;19.70;20.00;;;;;;5037311;28;20658;-52
2021/03/24 03:10:40;;;;;;;1.70;1.60;;;19.70;20.00;;;;;;5037032;28;20251;-53
2021/03/24 03:13:18;;;;;;;1.55;1.45;;;19.70;20.00;;;;;;5037234;28;20195;-53
2021/03/24 03:16:20;;;;;;;2.38;2.17;;;19.70;20.00;;;;;;5036766;28;20159;-53
2021/03/24 03:18:58;;;;;;;1.65;1.55;;;19.70;20.00;;;;;;5025974;28;20650;-53
2021/03/24 03:21:33;;;;;;;2.05;1.90;;;19.70;20.00;;;;;;5036996;28;20201;-52
2021/03/24 03:24:07;;;;;;;1.38;1.27;;;19.70;20.00;;;;;;5068893;28;20163;-52
2021/03/24 03:26:35;;;;;;;2.10;2.00;;;19.70;20.00;;;;;;5036965;28;20156;-53
2021/03/24 03:29:08;;;;;;;1.58;1.48;;;19.70;20.00;;;;;;5036276;28;20172;-53
2021/03/24 03:31:38;;;;;;;1.80;1.70;;;19.60;20.00;;;;;;5036794;28;20190;-52
2021/03/24 03:34:09;;;;;;;1.48;1.38;;;19.60;20.00;;;;;;5036605;28;20507;-52
2021/03/24 03:36:45;;;;;;;1.40;1.30;;;19.70;20.10;;;;;;5036898;28;20152;-53
2021/03/24 03:39:15;;;;;;;1.42;1.33;;;19.60;20.00;;;;;;5036626;28;20156;-53
2021/03/24 03:41:43;;;;;;;1.52;1.42;;;19.60;20.00;;;;;;5036732;28;20183;-52
2021/03/24 03:44:13;;;;;;;1.50;1.40;;;19.60;20.00;;;;;;5035959;28;20164;-53
2021/03/24 03:46:45;;;;;;;1.42;1.33;;;19.70;20.50;;;;;;5036620;28;20199;-53
2021/03/24 03:49:11;;;;;;;1.65;1.55;;;19.60;20.00;;;;;;5036391;28;20152;-53
2021/03/24 03:52:09;;;;;;;1.57;1.47;;;19.60;20.00;;;;;;5036372;28;20194;-53
2021/03/24 03:54:37;;;;;;;2.00;1.67;;;19.60;20.00;;;;;;5035191;28;20413;-52
2021/03/24 03:57:24;;;;;;;1.85;1.75;;;19.60;20.00;;;;;;5036501;28;20238;-52
2021/03/24 04:00:04;;;;;;;1.92;1.65;;;19.60;20.00;;;;;;5035508;28;20151;-53
2021/03/24 04:02:38;;;;;;;1.85;1.55;;;19.60;20.00;;;;;;5036256;28;20180;-52
2021/03/24 04:05:09;;;;;;;1.67;1.33;;;19.60;20.00;;;;;;5036207;28;20183;-53
2021/03/24 04:08:00;;;;;;;1.30;1.20;;;19.60;20.00;;;;;;5036235;28;20241;-52
2021/03/24 04:10:33;;;;;;;1.50;1.40;;;19.60;20.00;;;;;;5035985;28;20152;-52
2021/03/24 04:13:02;;;;;;;1.60;1.50;;;19.60;20.00;;;;;;5036363;28;20179;-53
2021/03/24 04:15:31;;;;;;;1.40;1.30;;;19.60;20.00;;;;;;5035505;28;20243;-52
2021/03/24 04:18:09;;;;;;;1.90;1.80;;;19.60;20.00;;;;;;5036025;28;20159;-52
2021/03/24 04:20:36;;;;;;;1.20;1.05;;;19.60;20.00;;;;;;5035824;28;20206;-52
2021/03/24 04:23:06;;;;;;;1.83;1.60;;;19.60;20.00;;;;;;5035969;28;20625;-52
2021/03/24 04:25:47;;;;;;;2.03;1.85;;;19.60;20.00;;;;;;5035728;28;20156;-52
2021/03/24 04:28:18;;;;;;;1.40;1.30;;;19.60;20.00;;;;;;5067407;28;20296;-52
2021/03/24 04:30:49;;;;;;;1.42;1.33;;;19.60;20.00;;;;;;5035008;28;20572;-52
2021/03/24 04:33:15;;;;;;;1.55;1.45;;;19.60;20.00;;;;;;5035763;28;20155;-52
2021/03/24 04:35:42;;;;;;;2.38;1.50;;;19.60;20.00;;;;;;5035608;28;20182;-53
2021/03/24 04:38:28;;;;;;;1.60;1.50;;;19.60;20.00;;;;;;5035585;28;20547;-52
2021/03/24 04:41:00;;;;;;;1.48;1.38;;;19.60;20.00;;;;;;5035444;28;20148;-53
2021/03/24 04:43:30;;;;;;;1.50;1.40;;;19.60;20.00;;;;;;5035416;28;20324;-53
2021/03/24 04:46:01;;;;;;;1.65;1.55;;;19.60;20.00;;;;;;5034805;28;20239;-53
2021/03/24 04:48:43;;;;;;;1.58;1.48;;;19.60;20.00;;;;;;5035415;28;20152;-53
2021/03/24 04:51:21;;;;;;;1.45;1.35;;;19.60;20.00;;;;;;5035006;28;20179;-52
2021/03/24 04:54:17;;;;;;;1.70;1.60;;;19.50;19.90;;;;;;5033940;28;20159;-52
2021/03/24 04:56:51;;;;;;;1.40;1.30;;;19.60;20.00;;;;;;5026604;28;20575;-53
2021/03/24 04:59:22;;;;;;;1.70;1.60;;;19.60;20.00;;;;;;5034451;28;20171;-53
2021/03/24 05:01:52;;;;;;;1.40;1.30;;;19.60;20.00;;;;;;5035064;28;20171;-53
2021/03/24 05:04:32;;;;;;;1.73;1.63;;;19.60;20.00;;;;;;5034853;28;20172;-52
2021/03/24 05:07:02;;;;;;;1.60;1.50;;;19.60;20.00;;;;;;5035188;28;20163;-52
2021/03/24 05:09:28;;;;;;;1.55;1.45;;;19.60;20.00;;;;;;5034850;28;20160;-54
2021/03/24 05:12:08;;;;;;;1.60;1.50;;;19.60;20.00;;;;;;5034556;28;20195;-53
2021/03/24 05:14:42;;;;;;;1.38;1.27;;;19.60;20.00;;;;;;5034582;28;20155;-53
2021/03/24 05:17:13;;;;;;;2.03;1.63;;;19.60;20.00;;;;;;5034859;28;20645;-53
2021/03/24 05:19:44;;;;;;;1.45;1.35;;;19.60;20.00;;;;;;5034594;28;20156;-53
2021/03/24 05:22:25;;;;;;;1.60;1.50;;;19.60;20.00;;;;;;5034956;28;20155;-53
2021/03/24 05:25:01;;;;;;;1.70;1.60;;;19.60;20.00;;;;;;5034511;28;20156;-54
2021/03/24 05:27:47;;;;;;;1.88;1.75;;;19.60;20.00;;;;;;5034633;28;20238;-54
2021/03/24 05:30:27;;;;;;;1.40;1.30;;;19.60;20.00;;;;;;5033987;28;20168;-57
2021/03/24 05:33:01;;;;;;;1.65;1.55;;;19.60;20.00;;;;;;5034757;28;20690;-53
2021/03/24 05:35:48;;;;;;;1.58;1.48;;;19.60;20.00;;;;;;5034584;28;20155;-52
2021/03/24 05:38:24;;;;;;;1.40;1.30;;;19.60;20.50;;;;;;5034467;28;20158;-50
2021/03/24 05:41:17;;;;;;;1.50;1.40;;;19.60;20.00;;;;;;5034290;28;20611;-51
2021/03/24 05:44:07;;;;;;;2.13;1.45;;;19.60;20.00;;;;;;5034386;28;20156;-50
2021/03/24 05:47:00;;;;;;;2.10;1.98;;;19.60;20.00;;;;;;5034437;28;20160;-50
2021/03/24 05:49:54;;;;;;;1.73;1.63;;;19.60;20.00;;;;;;5033975;28;20151;-51
2021/03/24 05:52:55;;;;;;;1.48;1.38;;;19.60;20.00;;;;;;5034059;28;20270;-50
2021/03/24 05:55:42;;;;;;;1.63;1.52;;;19.60;20.00;;;;;;5033720;28;20183;-50
2021/03/24 05:58:16;;;;;;;3.20;1.95;;;19.60;20.00;;;;;;5033936;28;20160;-51
2021/03/24 06:00:45;;;;;;;1.63;1.52;;;19.60;20.00;;;;;;5033278;28;20159;-51
2021/03/24 06:03:54;;;;;;;1.77;1.60;;;19.60;20.00;;;;;;5033915;28;20182;-49
2021/03/24 06:06:29;;;;;;;2.00;1.90;;;19.60;20.00;;;;;;5028613;28;20215;-51
2021/03/24 06:09:13;;;;;;;1.65;1.55;;;19.60;20.00;;;;;;5033626;28;20603;-52
2021/03/24 06:12:09;;;;;;;1.58;1.45;;;19.60;20.00;;;;;;5033796;28;20195;-50
2021/03/24 06:14:48;;;;;;;1.48;1.38;;;19.60;20.00;;;;;;5033239;28;20239;-51
2021/03/24 06:17:26;;;;;;;1.63;1.52;;;19.60;20.00;;;;;;5033294;28;20151;-51
2021/03/24 06:20:28;;;;;;;1.48;1.38;;;19.60;20.00;;;;;;5033278;28;20158;-51
2021/03/24 06:23:05;;;;;;;1.67;1.58;;;19.60;20.00;;;;;;5033603;28;20201;-51
2021/03/24 06:25:42;;;;;;;2.00;1.50;;;19.60;20.00;;;;;;5033626;28;20633;-51
2021/03/24 06:28:22;;;;;;;1.50;1.40;;;19.60;20.00;;;;;;5033413;28;20231;-51
2021/03/24 06:30:59;;;;;;;1.88;1.50;;;19.60;20.00;;;;;;5032993;28;20155;-50
2021/03/24 06:33:40;;;;;;;1.70;1.45;;;19.60;20.00;;;;;;5033631;28;20440;-52
2021/03/24 06:36:43;;;;;;;1.50;1.40;;;19.60;20.00;;;;;;5033370;28;20160;-50
2021/03/24 06:39:11;;;;;;;1.70;1.60;;;19.60;20.00;;;;;;5033342;28;20168;-52
2021/03/24 06:41:52;;;;;;;1.80;1.67;;;19.60;20.00;;;;;;5033366;28;20172;-50
2021/03/24 06:44:45;;;;;;;1.52;1.30;;;19.70;20.00;;;;;;5032890;28;20159;-51
2021/03/24 06:47:29;;;;;;;1.50;1.35;;;19.70;20.00;;;;;;5033461;28;20162;-50
2021/03/24 06:50:23;;;;;;;1.48;1.38;;;19.70;20.00;;;;;;5033522;28;20160;-51
2021/03/24 06:52:57;;;;;;;1.33;1.23;;;19.70;20.00;;;;;;5033266;28;20179;-52
2021/03/24 06:55:43;;;;;;;1.50;1.40;;;19.70;20.00;;;;;;5033101;28;20183;-50
2021/03/24 06:58:11;;;;;;;1.65;1.55;;;19.70;20.00;;;;;;5015472;28;20198;-51
2021/03/24 07:01:07;;;;;;;1.40;1.30;;;19.70;20.00;;;;;;5032630;28;20156;-51
2021/03/24 07:03:51;;;;;;;2.17;1.98;;;19.70;20.00;;;;;;5013631;28;20646;-51
2021/03/24 07:06:32;;;;;;;2.50;1.60;;;19.70;20.00;;;;;;5013429;28;20156;-51
2021/03/24 07:09:06;;;;;;;1.55;1.33;;;19.70;20.00;;;;;;5013368;28;20161;-49
2021/03/24 07:11:56;;;;;;;1.88;1.60;;;19.70;20.00;;;;;;5013392;28;20732;-50
2021/03/24 07:14:49;;;;;;;11.88;10.63;;;19.80;20.10;;;;;;5003465;28;20171;-51
2021/03/24 07:17:40;;;;;;;16.92;15.20;;;18.60;15.00;;;;;;5036741;28;20585;-52
2021/03/24 07:20:25;;;;;;;20.25;18.15;;;14.00;15.70;;;;;;5029058;28;20192;-50
2021/03/24 07:23:00;;;;;;;19.80;17.42;;;12.50;19.10;;;;;;5046079;28;20179;-50
2021/03/24 07:25:38;;;;;;;20.15;17.90;;;11.40;21.30;;;;;;5001213;28;20182;-50
2021/03/24 07:28:36;;;;;;;19.95;18.05;;;10.70;21.70;;;;;;5028728;28;20262;-51
2021/03/24 07:31:17;;;;;;;19.30;16.52;;;10.70;23.00;;;;;;5022369;28;20184;-51
2021/03/24 07:34:02;;;;;;;25.70;19.02;;;11.00;22.70;;;;;;5019234;28;20510;-50
2021/03/24 07:36:51;;;;;;;20.75;16.88;;;10.50;22.40;;;;;;5035751;28;20152;-50
2021/03/24 07:39:22;;;;;;;15.88;13.32;;;10.40;23.60;;;;;;5035803;28;20182;-52
2021/03/24 07:42:22;;;;;;;14.85;11.98;;;11.30;25.40;;;;;;5035791;28;20198;-50
2021/03/24 07:45:03;;;;;;;14.13;12.63;;;12.20;25.80;;;;;;5033432;28;20506;-49
2021/03/24 07:47:38;;;;;;;13.25;10.75;;;13.20;24.60;;;;;;5034936;28;20644;-49
2021/03/24 07:50:24;;;;;;;13.63;11.45;;;13.90;23.70;;;;;;5034044;28;20546;-51
2021/03/24 07:52:57;;;;;;;13.98;11.00;;;14.50;22.40;;;;;;4996682;28;20223;-52
2021/03/24 07:55:46;;;;;;;10.90;9.80;;;15.10;21.90;;;;;;5030472;28;20183;-52
2021/03/24 07:58:30;;;;;;;14.63;9.70;;;15.70;21.20;;;;;;5017078;28;20621;-51
2021/03/24 08:01:33;;;;;;;10.35;9.20;;;16.10;21.00;;;;;;5030371;28;20222;-52
2021/03/24 08:04:37;;;;;;;13.30;8.93;;;16.60;20.60;;;;;;5045464;28;20179;-52
2021/03/24 08:07:14;;;;;;;8.55;7.72;;;17.00;20.20;;;;;;5009494;28;20342;-52
2021/03/24 08:09:46;;;;;;;7.25;6.55;;;17.20;19.80;;;;;;5033106;28;20179;-52
2021/03/24 08:12:53;;;;;;;10.45;7.78;;;17.50;19.70;;;;;;5033248;28;20236;-52
2021/03/24 08:15:56;;;;;;;8.90;7.07;;;17.70;19.60;;;;;;5030797;28;20543;-52
2021/03/24 08:18:24;;;;;;;7.55;6.47;;;17.90;19.40;;;;;;5020411;28;20266;-52
2021/03/24 08:21:30;;;;;;;6.93;6.32;;;18.10;19.20;;;;;;5032546;28;20187;-51
2021/03/24 08:24:29;;;;;;;5.90;5.25;;;18.30;19.10;;;;;;5006367;28;20191;-52
2021/03/24 08:27:03;;;;;;;5.57;5.05;;;18.40;19.10;;;;;;5031267;28;20293;-51
2021/03/24 08:29:37;;;;;;;6.50;5.55;;;18.60;19.30;;;;;;5032587;28;20503;-55
2021/03/24 08:32:37;;;;;;;7.18;6.18;;;18.70;19.30;;;;;;5032857;28;20520;-50
2021/03/24 08:35:21;;;;;;;5.70;5.20;;;18.80;19.10;;;;;;5033332;28;20515;-51
2021/03/24 08:38:26;;;;;;;6.22;5.13;;;18.90;19.10;;;;;;5031341;28;20295;-51
2021/03/24 08:41:04;;;;;;;4.53;4.13;;;19.00;19.10;;;;;;5032547;28;20461;-51
2021/03/24 08:43:48;;;;;;;7.20;4.38;;;19.20;19.30;;;;;;5031805;28;20206;-50
2021/03/24 08:46:49;;;;;;;5.35;4.75;;;19.30;19.20;;;;;;5032022;28;20286;-50
2021/03/24 08:49:20;;;;;;;4.47;4.07;;;19.30;19.10;;;;;;5028872;28;20281;-50
2021/03/24 08:51:52;;;;;;;6.00;4.35;;;19.40;19.00;;;;;;5031818;28;20613;-50
2021/03/24 08:54:38;;;;;;;6.22;4.03;;;19.50;19.10;;;;;;5032455;28;20179;-49
2021/03/24 08:57:13;;;;;;;4.60;4.15;;;19.70;18.60;;;;;;5033581;28;20633;-52
2021/03/24 08:59:47;;;;;;;5.63;5.03;;;19.90;19.00;;;;;;5032003;28;20171;-49
2021/03/24 09:02:39;;;;;;;4.88;4.47;;;20.00;18.90;;;;;;5031285;28;20552;-49
2021/03/24 09:05:10;;;;;;;3.95;3.55;;;20.20;18.60;;;;;;5029658;28;20194;-49
2021/03/24 09:07:45;;;;;;;5.07;4.05;;;20.30;18.30;;;;;;5030090;28;20176;-50
2021/03/24 09:10:53;;;;;;;7.88;4.15;;;20.50;18.10;;;;;;5031413;28;20638;-49
2021/03/24 09:13:27;;;;;;;5.22;4.30;;;;;;;;;;5016042;28;20275;-49
2021/03/24 09:16:18;;;;;;;4.57;4.15;;;20.70;17.10;;;;;;5032316;28;20183;-50
2021/03/24 09:18:50;;;;;;;4.10;3.67;;;20.90;17.60;;;;;;5031532;28;20160;-51
2021/03/24 09:21:32;;;;;;;4.43;3.50;;;21.00;17.40;;;;;;5046906;28;20274;-50
2021/03/24 09:24:22;;;;;;;4.25;3.85;;;21.10;17.40;;;;;;5030948;28;20526;-51
2021/03/24 09:26:59;;;;;;;8.27;3.35;;;21.20;17.20;;;;;;5033876;28;20167;-50
2021/03/24 09:30:13;;;;;;;4.43;4.03;;;21.30;17.10;;;;;;5031720;28;20175;-50
2021/03/24 09:32:50;;;;;;;4.25;3.40;;;21.40;17.20;;;;;;5023834;28;20658;-51
2021/03/24 09:35:55;;;;;;;4.25;3.53;;;21.50;17.30;;;;;;5030352;28;20167;-52
2021/03/24 09:38:23;;;;;;;4.45;4.05;;;21.50;17.80;;;;;;5017699;28;20214;-53
2021/03/24 09:41:07;;;;;;;4.30;3.95;;;21.60;17.30;;;;;;5032958;28;20302;-53
2021/03/24 09:43:42;;;;;;;4.22;3.50;;;21.70;17.40;;;;;;5031592;28;20254;-52
2021/03/24 09:46:33;;;;;;;5.65;3.53;;;21.70;17.40;;;;;;5027129;28;20284;-51
2021/03/24 09:49:01;;;;;;;4.28;3.88;;;;;;;;;;5012641;28;20168;-53
2021/03/24 09:51:34;;;;;;;5.45;4.05;;;21.90;23.50;;;;;;5028984;28;20225;-52
2021/03/24 09:54:18;;;;;;;5.88;5.35;;;21.90;17.30;;;;;;5031748;28;20208;-53
2021/03/24 09:57:01;;;;;;;7.65;5.97;;;21.90;15.60;;;;;;5013369;28;20167;-54
2021/03/24 09:59:44;;;;;;;7.22;6.53;;;21.90;15.60;;;;;;5029355;28;20159;-53
2021/03/24 10:02:23;;;;;;;5.00;4.47;;;21.90;15.20;;;;;;5030706;28;20191;-52
2021/03/24 10:04:51;;;;;;;6.90;4.70;;;21.90;15.90;;;;;;5026391;28;20184;-54
2021/03/24 10:07:25;;;;;;;6.38;4.25;;;22.00;16.20;;;;;;5030779;28;20172;-53
2021/03/24 10:10:16;;;;;;;5.55;4.20;;;22.10;16.20;;;;;;5032084;28;20171;-53
2021/03/24 10:12:55;;;;;;;3.83;3.53;;;22.10;16.10;;;;;;5031603;28;20218;-54
2021/03/24 10:15:21;;;;;;;8.50;5.07;;;22.20;16.20;;;;;;5030509;28;20206;-54
2021/03/24 10:18:22;;;;;;;4.83;3.40;;;22.30;15.70;;;;;;5030253;28;20175;-53
2021/03/24 10:20:50;;;;;;;4.97;3.88;;;22.30;16.10;;;;;;5030792;28;20664;-53
2021/03/24 10:23:44;;;;;;;3.75;3.38;;;22.40;16.30;;;;;;5032651;28;20239;-53
2021/03/24 10:26:25;;;;;;;4.00;3.55;;;22.50;16.20;;;;;;5030137;28;20646;-52
2021/03/24 10:29:09;;;;;;;5.43;3.75;;;22.50;16.10;;;;;;5030995;28;20749;-51
2021/03/24 10:31:39;;;;;;;5.55;3.30;;;22.60;16.20;;;;;;5030613;28;20207;-51
2021/03/24 10:34:41;;;;;;;5.20;3.15;;;22.60;16.30;;;;;;5030294;28;20213;-50
2021/03/24 10:37:12;;;;;;;4.18;2.95;;;22.60;16.30;;;;;;5027834;28;20588;-51
2021/03/24 10:40:00;;;;;;;9.55;3.55;;;22.70;16.30;;;;;;5027259;28;20764;-51
2021/03/24 10:42:30;;;;;;;3.30;3.00;;;22.70;16.20;;;;;;5016985;28;20203;-51
2021/03/24 10:45:28;;;;;;;6.18;4.25;;;22.80;16.20;;;;;;5028556;28;20194;-52
2021/03/24 10:48:28;;;;;;;3.50;3.20;;;22.80;16.20;;;;;;5028584;28;20180;-52
2021/03/24 10:51:11;;;;;;;7.10;3.72;;;22.90;16.20;;;;;;5030203;28;20180;-50
2021/03/24 10:53:36;;;;;;;4.13;3.08;;;22.90;16.20;;;;;;5027090;28;20206;-51
2021/03/24 10:56:27;;;;;;;3.40;3.10;;;22.90;16.10;;;;;;5029803;28;20172;-50
2021/03/24 10:59:14;;;;;;;3.35;3.10;;;23.00;16.20;;;;;;5029050;28;20645;-50
2021/03/24 11:01:53;;;;;;;4.40;3.28;;;23.10;16.80;;;;;;5027414;28;20175;-51
2021/03/24 11:04:39;;;;;;;3.00;2.60;;;23.10;16.10;;;;;;5032624;28;20175;-51
2021/03/24 11:07:30;;;;;;;6.35;3.17;;;23.10;16.10;;;;;;5030404;28;20236;-51
2021/03/24 11:10:04;;;;;;;3.30;3.00;;;23.20;16.20;;;;;;5027684;28;20546;-52
2021/03/24 11:12:41;;;;;;;3.90;2.92;;;23.20;16.10;;;;;;5029379;28;20261;-51
2021/03/24 11:15:25;;;;;;;3.80;3.20;;;23.20;16.30;;;;;;5031018;28;20279;-51
2021/03/24 11:18:02;;;;;;;4.97;3.03;;;23.20;16.10;;;;;;5034738;28;20176;-52
2021/03/24 11:20:43;;;;;;;3.60;3.30;;;23.30;16.10;;;;;;5033592;28;20241;-51
2021/03/24 11:23:20;;;;;;;7.25;3.97;;;23.20;16.30;;;;;;5033482;28;20171;-53
2021/03/24 11:26:20;;;;;;;3.55;3.00;;;23.30;16.10;;;;;;5033699;28;20190;-54
2021/03/24 11:28:53;;;;;;;3.10;2.90;;;23.30;16.20;;;;;;5029542;28;20717;-54
2021/03/24 11:31:25;;;;;;;3.95;2.80;;;23.30;17.20;;;;;;5033230;28;20210;-51
2021/03/24 11:34:05;;;;;;;14.85;3.03;;;23.40;20.40;;;;;;5033669;28;20188;-53
2021/03/24 11:36:43;;;;;;;3.95;3.40;;;23.40;53.00;;;;;;5033969;28;20156;-52
2021/03/24 11:39:32;;;;;;;2.92;2.72;;;23.40;16.60;;;;;;5017565;28;20172;-51
2021/03/24 11:42:17;;;;;;;3.75;3.13;;;23.40;16.10;;;;;;5031483;28;20183;-52
2021/03/24 11:44:49;;;;;;;3.70;2.90;;;23.50;16.10;;;;;;5012508;28;20179;-52
2021/03/24 11:47:33;;;;;;;3.25;2.95;;;23.50;16.10;;;;;;5034724;28;20176;-52
2021/03/24 11:50:28;;;;;;;3.28;2.78;;;23.40;42.50;;;;;;5033516;28;20235;-53
2021/03/24 11:53:03;;;;;;;3.90;3.28;;;;;;;;;;5035152;28;20196;-51
2021/03/24 11:55:32;;;;;;;3.90;3.00;;;;;;;;;;5033435;28;20182;-52
2021/03/24 11:58:26;;;;;;;2.40;2.20;;;23.50;23.90;;;;;;5031559;28;20643;-52
2021/03/24 12:01:03;;;;;;;3.63;2.75;;;23.50;24.50;;;;;;5028764;28;20179;-51
2021/03/24 12:03:32;;;;;;;4.00;3.00;;;23.60;16.30;;;;;;5032222;28;20167;-51
2021/03/24 12:06:24;;;;;;;3.05;2.63;;;23.60;21.00;;;;;;5035255;28;20175;-51
2021/03/24 12:08:54;;;;;;;3.35;3.05;;;;;;;;;;5033053;28;20184;-53
2021/03/24 12:11:20;;;;;;;7.57;4.00;;;;;;;;;;5034225;28;20278;-53
2021/03/24 12:13:46;;;;;;;3.40;3.03;;;23.50;37.80;;;;;;5035261;28;20184;-52
2021/03/24 12:16:18;;;;;;;3.53;2.80;;;23.70;16.30;;;;;;5033410;28;20194;-52
2021/03/24 12:18:51;;;;;;;3.58;3.28;;;;;;;;;;5032605;28;20197;-52
2021/03/24 12:21:33;;;;;;;3.53;2.75;;;23.60;15.70;;;;;;5049812;28;20527;-52
2021/03/24 12:24:25;;;;;;;4.85;3.30;;;23.70;16.30;;;;;;5034380;28;20159;-52
2021/03/24 12:26:51;;;;;;;3.90;3.50;;;23.70;16.20;;;;;;5019419;28;20255;-52
2021/03/24 12:29:27;;;;;;;3.00;2.60;;;23.70;16.30;;;;;;5043939;28;20191;-51
2021/03/24 12:32:01;;;;;;;3.42;2.55;;;23.70;16.30;;;;;;5052090;28;20202;-51
2021/03/24 12:34:40;;;;;;;3.08;2.67;;;23.70;16.20;;;;;;5042543;28;20213;-51
2021/03/24 12:37:06;;;;;;;4.07;3.25;;;23.70;16.20;;;;;;5033150;28;20167;-53
2021/03/24 12:39:38;;;;;;;3.40;2.87;;;23.70;16.20;;;;;;5033330;28;20179;-53
2021/03/24 12:42:30;;;;;;;3.35;2.45;;;23.70;56.20;;;;;;5033251;28;20396;-54
2021/03/24 12:44:59;;;;;;;3.70;3.15;;;23.70;16.20;;;;;;5030585;28;20270;-51
2021/03/24 12:47:40;;;;;;;4.20;3.28;;;23.70;16.30;;;;;;5034553;28;20622;-51
2021/03/24 12:50:12;;;;;;;3.35;3.05;;;23.70;16.30;;;;;;5033944;28;20199;-51
2021/03/24 12:52:45;;;;;;;3.28;2.97;;;23.70;16.30;;;;;;5032827;28;20461;-53
2021/03/24 12:55:12;;;;;;;5.40;3.65;;;23.70;16.30;;;;;;5034038;28;20174;-50
2021/03/24 12:57:53;;;;;;;3.58;2.88;;;23.70;16.30;;;;;;5034257;28;20160;-51
2021/03/24 13:00:34;;;;;;;3.33;3.03;;;23.80;16.40;;;;;;5029881;28;20155;-51
2021/03/24 13:03:36;;;;;;;3.13;2.83;;;23.70;16.30;;;;;;5032986;28;20670;-50
2021/03/24 13:06:33;;;;;;;3.55;2.80;;;23.80;16.50;;;;;;5030769;28;20194;-51
2021/03/24 13:09:34;;;;;;;2.73;2.53;;;23.80;16.50;;;;;;5033235;28;20156;-52
2021/03/24 13:12:25;;;;;;;3.20;2.80;;;23.70;16.40;;;;;;5034157;28;20445;-51
2021/03/24 13:15:19;;;;;;;4.28;2.78;;;23.70;16.40;;;;;;5032128;28;20726;-52
2021/03/24 13:18:11;;;;;;;6.82;2.83;;;23.80;16.60;;;;;;5033925;28;20159;-51
2021/03/24 13:20:52;;;;;;;2.92;2.63;;;23.70;16.50;;;;;;5013613;28;20207;-51
2021/03/24 13:23:21;;;;;;;4.68;3.45;;;23.80;16.50;;;;;;5020252;28;20160;-54
2021/03/24 13:26:03;;;;;;;2.92;2.50;;;23.80;16.50;;;;;;5026029;28;20187;-52
2021/03/24 13:28:40;;;;;;;5.05;2.90;;;23.80;16.60;;;;;;5032911;28;20218;-52
2021/03/24 13:31:31;;;;;;;5.00;3.00;;;23.80;16.60;;;;;;5030693;28;20607;-53
2021/03/24 13:34:15;;;;;;;3.95;3.40;;;23.20;16.20;;;;;;5031649;28;20170;-51
2021/03/24 13:36:55;;;;;;;4.25;3.25;;;23.70;16.50;;;;;;5047833;28;20166;-52
2021/03/24 13:39:30;;;;;;;3.60;3.30;;;23.70;16.60;;;;;;5032920;28;20164;-52
2021/03/24 13:42:10;;;;;;;3.80;3.13;;;23.70;16.60;;;;;;5019628;28;20435;-53
2021/03/24 13:44:51;;;;;;;3.67;2.80;;;23.70;16.60;;;;;;5028036;28;20645;-51